Time,TemperatureF,DewpointF,PressureIn,WindDirection,WindDirectionDegrees,WindSpeedMPH,WindSpeedGustMPH,Humidity,HourlyPrecipIn,Conditions,Clouds,dailyrainin,SoftwareType,DateUTC
2013-08-31 00:02:00,67.3,54.7,29.98,North,355,5.0,7.0,64,0.00,,,0.00,meteohub,2013-08-31 07:02:00,
2013-08-31 00:07:00,67.3,54.3,29.98,North,350,3.0,7.0,63,0.00,,,0.00,meteohub,2013-08-31 07:07:00,
2013-08-31 00:12:00,67.3,53.8,29.98,NNW,346,2.0,7.0,62,0.00,,,0.00,meteohub,2013-08-31 07:12:00,
2013-08-31 00:17:00,67.3,52.5,29.98,North,351,0.0,8.0,59,0.00,,,0.00,meteohub,2013-08-31 07:17:00,
2013-08-31 00:22:00,67.5,52.7,29.98,NNW,346,1.0,8.0,59,0.00,,,0.00,meteohub,2013-08-31 07:22:00,
2013-08-31 00:27:00,67.5,52.2,29.98,NNW,348,2.0,8.0,58,0.00,,,0.00,meteohub,2013-08-31 07:27:00,
2013-08-31 00:32:00,67.5,51.6,29.98,NW,325,5.0,8.0,57,0.00,,,0.00,meteohub,2013-08-31 07:32:00,
2013-08-31 00:37:00,67.5,51.6,29.98,North,0,2.0,8.0,57,0.00,,,0.00,meteohub,2013-08-31 07:37:00,
2013-08-31 00:42:00,67.5,52.2,29.97,North,0,2.0,6.0,58,0.00,,,0.00,meteohub,2013-08-31 07:42:00,
2013-08-31 00:47:00,67.5,52.7,29.97,North,0,2.0,6.0,59,0.00,,,0.00,meteohub,2013-08-31 07:47:00,
2013-08-31 00:52:00,67.3,52.5,29.97,NNW,337,3.0,6.0,59,0.00,,,0.00,meteohub,2013-08-31 07:52:00,
2013-08-31 00:57:00,67.3,52.0,29.97,North,5,3.0,8.0,58,0.00,,,0.00,meteohub,2013-08-31 07:57:00,
2013-08-31 01:02:00,67.3,52.5,29.97,North,9,2.0,8.0,59,0.00,,,0.00,meteohub,2013-08-31 08:02:00,
2013-08-31 01:07:00,67.1,51.8,29.97,North,350,2.0,8.0,58,0.00,,,0.00,meteohub,2013-08-31 08:07:00,
2013-08-31 01:12:00,67.1,51.8,29.97,North,355,3.0,6.0,58,0.00,,,0.00,meteohub,2013-08-31 08:12:00,
2013-08-31 01:17:00,66.9,51.6,29.97,North,355,1.0,6.0,58,0.00,,,0.00,meteohub,2013-08-31 08:17:00,
2013-08-31 01:22:00,66.9,51.6,29.97,North,355,1.0,6.0,58,0.00,,,0.00,meteohub,2013-08-31 08:22:00,
2013-08-31 01:27:00,66.7,52.0,29.96,North,355,1.0,6.0,59,0.00,,,0.00,meteohub,2013-08-31 08:27:00,
2013-08-31 01:32:00,66.7,52.0,29.97,North,355,2.0,4.0,59,0.00,,,0.00,meteohub,2013-08-31 08:32:00,
2013-08-31 01:37:00,66.6,51.8,29.96,North,355,2.0,4.0,59,0.00,,,0.00,meteohub,2013-08-31 08:37:00,
2013-08-31 01:42:00,66.6,51.8,29.96,NNE,17,4.0,5.0,59,0.00,,,0.00,meteohub,2013-08-31 08:42:00,
2013-08-31 01:47:00,66.6,51.8,29.96,NNE,22,2.0,5.0,59,0.00,,,0.00,meteohub,2013-08-31 08:47:00,
2013-08-31 01:52:00,66.4,51.6,29.96,NNE,22,0.0,5.0,59,0.00,,,0.00,meteohub,2013-08-31 08:52:00,
2013-08-31 01:57:00,66.4,51.6,29.96,NNE,26,0.0,5.0,59,0.00,,,0.00,meteohub,2013-08-31 08:57:00,
2013-08-31 02:02:00,66.4,51.6,29.96,NNE,25,0.0,5.0,59,0.00,,,0.00,meteohub,2013-08-31 09:02:00,
2013-08-31 02:09:00,66.6,51.3,29.96,NNE,26,0.0,5.0,58,0.00,,,0.00,meteohub,2013-08-31 09:09:00,
2013-08-31 02:14:00,66.7,51.1,29.96,NNE,26,0.0,5.0,57,0.00,,,0.00,meteohub,2013-08-31 09:14:00,
2013-08-31 02:19:00,66.9,51.3,29.96,NNE,26,0.0,0.0,57,0.00,,,0.00,meteohub,2013-08-31 09:19:00,
2013-08-31 02:24:00,67.1,52.3,29.96,NNE,26,0.0,0.0,59,0.00,,,0.00,meteohub,2013-08-31 09:24:00,
2013-08-31 02:29:00,67.3,52.5,29.96,NNE,26,0.0,0.0,59,0.00,,,0.00,meteohub,2013-08-31 09:29:00,
2013-08-31 02:34:00,67.3,53.8,29.96,NNE,26,0.0,0.0,62,0.00,,,0.00,meteohub,2013-08-31 09:34:00,
2013-08-31 02:39:00,67.3,54.3,29.96,NNE,26,0.0,0.0,63,0.00,,,0.00,meteohub,2013-08-31 09:39:00,
2013-08-31 02:44:00,67.3,53.8,29.96,NNE,26,0.0,0.0,62,0.00,,,0.00,meteohub,2013-08-31 09:44:00,
2013-08-31 02:49:00,67.3,53.8,29.96,NNE,26,0.0,0.0,62,0.00,,,0.00,meteohub,2013-08-31 09:49:00,
2013-08-31 02:54:00,67.3,53.8,29.95,NNE,26,0.0,0.0,62,0.00,,,0.00,meteohub,2013-08-31 09:54:00,
2013-08-31 03:00:00,67.1,53.6,29.95,NNE,26,0.0,0.0,62,0.00,,,0.00,meteohub,2013-08-31 10:00:00,
2013-08-31 03:05:00,66.9,53.4,29.95,NNE,25,0.0,0.0,62,0.00,,,0.00,meteohub,2013-08-31 10:05:00,
2013-08-31 03:10:00,66.9,53.4,29.95,NNE,26,0.0,0.0,62,0.00,,,0.00,meteohub,2013-08-31 10:10:00,
2013-08-31 03:16:00,66.7,53.8,29.95,NNE,26,0.0,0.0,63,0.00,,,0.00,meteohub,2013-08-31 10:16:00,
2013-08-31 03:22:00,66.7,53.8,29.95,NNE,26,0.0,0.0,63,0.00,,,0.00,meteohub,2013-08-31 10:22:00,
2013-08-31 03:27:00,66.7,53.2,29.95,NNE,26,0.0,0.0,62,0.00,,,0.00,meteohub,2013-08-31 10:27:00,
2013-08-31 03:32:00,66.6,53.1,29.95,NNE,26,0.0,0.0,62,0.00,,,0.00,meteohub,2013-08-31 10:32:00,
2013-08-31 03:37:00,66.6,53.1,29.95,NNE,25,0.0,0.0,62,0.00,,,0.00,meteohub,2013-08-31 10:37:00,
2013-08-31 03:42:00,66.4,52.9,29.95,NNE,26,0.0,0.0,62,0.00,,,0.00,meteohub,2013-08-31 10:42:00,
2013-08-31 03:47:00,66.4,53.8,29.94,NNE,26,0.0,0.0,64,0.00,,,0.00,meteohub,2013-08-31 10:47:00,
2013-08-31 03:52:00,66.4,53.8,29.94,NNE,26,0.0,0.0,64,0.00,,,0.00,meteohub,2013-08-31 10:52:00,
2013-08-31 03:57:00,66.4,53.8,29.94,NNE,26,0.0,0.0,64,0.00,,,0.00,meteohub,2013-08-31 10:57:00,
2013-08-31 04:02:00,66.4,53.8,29.94,NNE,26,0.0,0.0,64,0.00,,,0.00,meteohub,2013-08-31 11:02:00,
2013-08-31 04:07:00,66.4,53.8,29.94,NNE,26,0.0,0.0,64,0.00,,,0.00,meteohub,2013-08-31 11:07:00,
2013-08-31 04:12:00,66.4,53.8,29.94,NNE,26,0.0,0.0,64,0.00,,,0.00,meteohub,2013-08-31 11:12:00,
2013-08-31 04:18:00,66.4,53.8,29.94,NNE,26,0.0,0.0,64,0.00,,,0.00,meteohub,2013-08-31 11:18:00,
2013-08-31 04:23:00,66.4,53.8,29.94,NNE,26,0.0,0.0,64,0.00,,,0.00,meteohub,2013-08-31 11:23:00,
2013-08-31 04:28:00,66.4,53.4,29.94,NNE,26,0.0,0.0,63,0.00,,,0.00,meteohub,2013-08-31 11:28:00,
2013-08-31 04:35:00,66.4,53.4,29.94,NNE,26,0.0,0.0,63,0.00,,,0.00,meteohub,2013-08-31 11:35:00,
2013-08-31 04:40:00,66.4,53.4,29.94,NNE,26,0.0,0.0,63,0.00,,,0.00,meteohub,2013-08-31 11:40:00,
2013-08-31 04:45:00,66.4,52.5,29.94,NNE,26,0.0,0.0,61,0.00,,,0.00,meteohub,2013-08-31 11:45:00,
2013-08-31 04:50:00,66.4,52.5,29.94,NNE,26,0.0,0.0,61,0.00,,,0.00,meteohub,2013-08-31 11:50:00,
2013-08-31 04:55:00,66.2,52.3,29.94,NNE,26,0.0,0.0,61,0.00,,,0.00,meteohub,2013-08-31 11:55:00,
2013-08-31 05:02:00,66.2,52.0,29.94,NNE,26,0.0,0.0,60,0.00,,,0.00,meteohub,2013-08-31 12:02:00,
2013-08-31 05:07:00,66.2,52.0,29.94,NNE,25,0.0,0.0,60,0.00,,,0.00,meteohub,2013-08-31 12:07:00,
2013-08-31 05:13:00,66.4,52.2,29.94,NNE,26,0.0,0.0,60,0.00,,,0.00,meteohub,2013-08-31 12:13:00,
2013-08-31 05:18:00,66.4,51.6,29.94,NNE,26,0.0,0.0,59,0.00,,,0.00,meteohub,2013-08-31 12:18:00,
2013-08-31 05:23:00,66.2,52.0,29.94,NNE,26,0.0,0.0,60,0.00,,,0.00,meteohub,2013-08-31 12:23:00,
2013-08-31 05:28:00,66.2,52.0,29.94,NNE,26,0.0,0.0,60,0.00,,,0.00,meteohub,2013-08-31 12:28:00,
2013-08-31 05:34:00,66.2,52.0,29.94,NNE,26,0.0,0.0,60,0.00,,,0.00,meteohub,2013-08-31 12:34:00,
2013-08-31 05:39:00,66.0,52.2,29.94,NNE,26,0.0,0.0,61,0.00,,,0.00,meteohub,2013-08-31 12:39:00,
2013-08-31 05:44:00,65.8,52.0,29.94,NNE,26,0.0,0.0,61,0.00,,,0.00,meteohub,2013-08-31 12:44:00,
2013-08-31 05:49:00,65.5,51.6,29.95,NNE,26,0.0,0.0,61,0.00,,,0.00,meteohub,2013-08-31 12:49:00,
2013-08-31 05:55:00,65.1,51.3,29.95,NNE,23,0.0,0.0,61,0.00,,,0.00,meteohub,2013-08-31 12:55:00,
2013-08-31 06:00:00,64.9,50.7,29.95,NNE,23,1.0,0.0,60,0.00,,,0.00,meteohub,2013-08-31 13:00:00,
2013-08-31 06:05:00,64.8,50.2,29.95,North,5,2.0,0.0,59,0.00,,,0.00,meteohub,2013-08-31 13:05:00,
2013-08-31 06:10:00,64.4,49.3,29.95,North,0,3.0,4.0,58,0.00,,,0.00,meteohub,2013-08-31 13:10:00,
2013-08-31 06:15:00,64.2,49.1,29.95,North,0,0.0,4.0,58,0.00,,,0.00,meteohub,2013-08-31 13:15:00,
2013-08-31 06:20:00,64.0,49.5,29.96,North,0,3.0,4.0,59,0.00,,,0.00,meteohub,2013-08-31 13:20:00,
2013-08-31 06:25:00,63.9,48.7,29.96,North,0,2.0,4.0,58,0.00,,,0.00,meteohub,2013-08-31 13:25:00,
2013-08-31 06:32:00,63.7,49.1,29.96,NNE,17,4.0,4.0,59,0.00,,,0.00,meteohub,2013-08-31 13:32:00,
2013-08-31 06:37:00,63.5,50.2,29.96,NNW,346,3.0,4.0,62,0.00,,,0.00,meteohub,2013-08-31 13:37:00,
2013-08-31 06:42:00,63.3,50.0,29.96,North,9,2.0,5.0,62,0.00,,,0.00,meteohub,2013-08-31 13:42:00,
2013-08-31 06:47:00,63.1,50.4,29.96,NNW,344,4.0,5.0,63,0.00,,,0.00,meteohub,2013-08-31 13:47:00,
2013-08-31 06:52:00,63.1,50.7,29.96,NNW,348,3.0,5.0,64,0.00,,,0.00,meteohub,2013-08-31 13:52:00,
2013-08-31 06:57:00,63.0,50.5,29.96,North,355,2.0,5.0,64,0.00,,,0.00,meteohub,2013-08-31 13:57:00,
2013-08-31 07:02:00,62.6,51.1,29.96,North,0,3.0,5.0,66,0.00,,,0.00,meteohub,2013-08-31 14:02:00,
2013-08-31 07:07:00,62.2,51.6,29.96,North,11,4.0,5.0,68,0.00,,,0.00,meteohub,2013-08-31 14:07:00,
2013-08-31 07:12:00,62.1,51.8,29.96,NNE,15,5.0,5.0,69,0.00,,,0.00,meteohub,2013-08-31 14:12:00,
2013-08-31 07:17:00,61.9,51.6,29.96,NNW,328,8.0,8.0,69,0.00,,,0.00,meteohub,2013-08-31 14:17:00,
2013-08-31 07:22:00,61.9,51.6,29.96,North,0,5.0,8.0,69,0.00,,,0.00,meteohub,2013-08-31 14:22:00,
2013-08-31 07:27:00,61.9,51.3,29.96,NNW,342,6.0,8.0,68,0.00,,,0.00,meteohub,2013-08-31 14:27:00,
2013-08-31 07:32:00,61.9,51.3,29.96,NNE,28,7.0,8.0,68,0.00,,,0.00,meteohub,2013-08-31 14:32:00,
2013-08-31 07:37:00,61.9,50.7,29.96,NNE,24,6.0,8.0,67,0.00,,,0.00,meteohub,2013-08-31 14:37:00,
2013-08-31 07:44:00,61.9,51.3,29.96,North,5,4.0,11.0,68,0.00,,,0.00,meteohub,2013-08-31 14:44:00,
2013-08-31 07:49:00,61.9,51.3,29.97,North,0,6.0,11.0,68,0.00,,,0.00,meteohub,2013-08-31 14:49:00,
2013-08-31 07:54:00,62.1,51.8,29.97,NNE,14,5.0,11.0,69,0.00,,,0.00,meteohub,2013-08-31 14:54:00,
2013-08-31 07:59:00,62.1,52.2,29.97,North,0,3.0,11.0,70,0.00,,,0.00,meteohub,2013-08-31 14:59:00,
2013-08-31 08:04:00,62.1,52.5,29.97,NW,323,6.0,11.0,71,0.00,,,0.00,meteohub,2013-08-31 15:04:00,
2013-08-31 08:09:00,62.2,53.4,29.97,North,355,7.0,11.0,73,0.00,,,0.00,meteohub,2013-08-31 15:09:00,
2013-08-31 08:15:00,62.4,53.6,29.97,NNE,17,4.0,11.0,73,0.00,,,0.00,meteohub,2013-08-31 15:15:00,
2013-08-31 08:20:00,62.8,53.6,29.97,North,5,3.0,11.0,72,0.00,,,0.00,meteohub,2013-08-31 15:20:00,
2013-08-31 08:25:00,63.0,53.8,29.97,North,0,3.0,11.0,72,0.00,,,0.00,meteohub,2013-08-31 15:25:00,
2013-08-31 08:31:00,63.3,53.4,29.97,NNE,13,4.0,10.0,70,0.00,,,0.00,meteohub,2013-08-31 15:31:00,
2013-08-31 08:36:00,63.7,53.8,29.97,North,355,2.0,10.0,70,0.00,,,0.00,meteohub,2013-08-31 15:36:00,
2013-08-31 08:41:00,63.9,53.4,29.97,North,0,5.0,10.0,69,0.00,,,0.00,meteohub,2013-08-31 15:41:00,
2013-08-31 08:46:00,64.2,53.8,29.97,NNE,13,2.0,10.0,69,0.00,,,0.00,meteohub,2013-08-31 15:46:00,
2013-08-31 08:51:00,64.6,54.1,29.98,North,355,6.0,10.0,69,0.00,,,0.00,meteohub,2013-08-31 15:51:00,
2013-08-31 08:56:00,64.8,54.0,29.97,NNE,14,2.0,10.0,68,0.00,,,0.00,meteohub,2013-08-31 15:56:00,
2013-08-31 09:01:00,65.1,54.3,29.98,North,11,3.0,10.0,68,0.00,,,0.00,meteohub,2013-08-31 16:01:00,
2013-08-31 09:06:00,65.5,54.7,29.98,NNW,329,4.0,10.0,68,0.00,,,0.00,meteohub,2013-08-31 16:06:00,
2013-08-31 09:11:00,65.8,55.0,29.98,North,351,3.0,10.0,68,0.00,,,0.00,meteohub,2013-08-31 16:11:00,
2013-08-31 09:16:00,66.4,55.0,29.98,North,355,3.0,9.0,67,0.00,,,0.00,meteohub,2013-08-31 16:16:00,
2013-08-31 09:22:00,66.7,55.0,29.98,NNW,344,3.0,9.0,66,0.00,,,0.00,meteohub,2013-08-31 16:22:00,
2013-08-31 09:27:00,67.1,54.5,29.98,North,0,0.0,9.0,64,0.00,,,0.00,meteohub,2013-08-31 16:27:00,
2013-08-31 09:32:00,67.5,54.5,29.98,North,355,2.0,9.0,63,0.00,,,0.00,meteohub,2013-08-31 16:32:00,
2013-08-31 09:37:00,68.0,54.0,29.98,NNW,338,2.0,9.0,61,0.00,,,0.00,meteohub,2013-08-31 16:37:00,
2013-08-31 09:42:00,68.5,54.5,29.98,NNW,340,0.0,6.0,61,0.00,,,0.00,meteohub,2013-08-31 16:42:00,
2013-08-31 09:49:00,69.3,53.8,29.98,NNW,327,2.0,6.0,58,0.00,,,0.00,meteohub,2013-08-31 16:49:00,
2013-08-31 09:54:00,70.0,54.5,29.98,NW,315,0.0,6.0,58,0.00,,,0.00,meteohub,2013-08-31 16:54:00,
2013-08-31 09:59:00,70.5,54.1,29.98,NW,316,2.0,6.0,56,0.00,,,0.00,meteohub,2013-08-31 16:59:00,
2013-08-31 10:04:00,71.1,54.1,29.99,NNW,341,0.0,6.0,55,0.00,,,0.00,meteohub,2013-08-31 17:04:00,
2013-08-31 10:09:00,71.8,54.7,29.99,NNW,342,1.0,6.0,55,0.00,,,0.00,meteohub,2013-08-31 17:09:00,
2013-08-31 10:15:00,72.3,54.7,29.99,NNW,342,0.0,6.0,54,0.00,,,0.00,meteohub,2013-08-31 17:15:00,
2013-08-31 10:20:00,73.2,55.0,29.99,NNW,342,0.0,6.0,53,0.00,,,0.00,meteohub,2013-08-31 17:20:00,
2013-08-31 10:25:00,73.9,55.2,29.99,NNW,348,0.0,6.0,52,0.00,,,0.00,meteohub,2013-08-31 17:25:00,
2013-08-31 10:31:00,74.7,55.4,29.98,NNW,346,1.0,4.0,51,0.00,,,0.00,meteohub,2013-08-31 17:31:00,
2013-08-31 10:36:00,75.4,55.9,29.98,NNW,346,0.0,4.0,51,0.00,,,0.00,meteohub,2013-08-31 17:36:00,
2013-08-31 10:41:00,75.9,55.9,29.98,NNW,346,1.0,4.0,50,0.00,,,0.00,meteohub,2013-08-31 17:41:00,
2013-08-31 10:46:00,76.5,55.9,29.98,NNW,346,0.0,4.0,49,0.00,,,0.00,meteohub,2013-08-31 17:46:00,
2013-08-31 10:51:00,76.6,56.7,29.98,NNW,346,0.0,4.0,50,0.00,,,0.00,meteohub,2013-08-31 17:51:00,
2013-08-31 10:56:00,77.2,57.0,29.98,NNW,346,1.0,4.0,50,0.00,,,0.00,meteohub,2013-08-31 17:56:00,
2013-08-31 11:01:00,77.7,57.0,29.98,NNW,344,0.0,4.0,49,0.00,,,0.00,meteohub,2013-08-31 18:01:00,
2013-08-31 11:07:00,78.4,57.7,29.98,NNW,344,0.0,4.0,49,0.00,,,0.00,meteohub,2013-08-31 18:07:00,
2013-08-31 11:12:00,79.0,57.0,29.98,North,0,0.0,4.0,47,0.00,,,0.00,meteohub,2013-08-31 18:12:00,
2013-08-31 11:17:00,79.3,57.4,29.98,North,0,1.0,4.0,47,0.00,,,0.00,meteohub,2013-08-31 18:17:00,
2013-08-31 11:22:00,80.1,57.4,29.98,North,0,0.0,4.0,46,0.00,,,0.00,meteohub,2013-08-31 18:22:00,
2013-08-31 11:27:00,80.6,56.7,29.98,North,0,2.0,4.0,44,0.00,,,0.00,meteohub,2013-08-31 18:27:00,
2013-08-31 11:33:00,81.5,56.1,29.98,North,5,1.0,4.0,42,0.00,,,0.00,meteohub,2013-08-31 18:33:00,
2013-08-31 11:38:00,82.0,53.2,29.98,WSW,250,2.0,4.0,37,0.00,,,0.00,meteohub,2013-08-31 18:38:00,
2013-08-31 11:43:00,82.4,52.7,29.98,WSW,249,1.0,4.0,36,0.00,,,0.00,meteohub,2013-08-31 18:43:00,
2013-08-31 11:49:00,82.9,52.5,29.98,SSW,209,4.0,4.0,35,0.00,,,0.00,meteohub,2013-08-31 18:49:00,
2013-08-31 11:54:00,83.1,53.4,29.98,WSW,245,5.0,5.0,36,0.00,,,0.00,meteohub,2013-08-31 18:54:00,
2013-08-31 11:59:00,83.3,53.6,29.98,SW,215,2.0,6.0,36,0.00,,,0.00,meteohub,2013-08-31 18:59:00,
2013-08-31 12:06:00,83.7,54.7,29.98,SW,215,2.0,6.0,37,0.00,,,0.00,meteohub,2013-08-31 19:06:00,
2013-08-31 12:11:00,84.0,54.1,29.97,SW,234,1.0,6.0,36,0.00,,,0.00,meteohub,2013-08-31 19:11:00,
2013-08-31 12:16:00,84.6,54.0,29.97,SSW,207,0.0,6.0,35,0.00,,,0.00,meteohub,2013-08-31 19:16:00,
2013-08-31 12:21:00,84.9,55.0,29.97,West,265,3.0,5.0,36,0.00,,,0.00,meteohub,2013-08-31 19:21:00,
2013-08-31 12:26:00,85.3,54.5,29.97,SSW,212,0.0,5.0,35,0.00,,,0.00,meteohub,2013-08-31 19:26:00,
2013-08-31 12:31:00,85.3,54.5,29.97,SW,223,1.0,5.0,35,0.00,,,0.00,meteohub,2013-08-31 19:31:00,
2013-08-31 12:36:00,85.3,53.8,29.97,SW,233,0.0,5.0,34,0.00,,,0.00,meteohub,2013-08-31 19:36:00,
2013-08-31 12:41:00,85.8,53.4,29.96,SW,221,1.0,5.0,33,0.00,,,0.00,meteohub,2013-08-31 19:41:00,
2013-08-31 12:46:00,86.5,54.0,29.96,WSW,240,0.0,5.0,33,0.00,,,0.00,meteohub,2013-08-31 19:46:00,
2013-08-31 12:52:00,87.1,53.6,29.96,South,173,1.0,5.0,32,0.00,,,0.00,meteohub,2013-08-31 19:52:00,
2013-08-31 12:57:00,87.4,52.2,29.96,SW,223,2.0,5.0,30,0.00,,,0.00,meteohub,2013-08-31 19:57:00,
2013-08-31 13:02:00,88.3,52.0,29.96,SW,223,1.0,5.0,29,0.00,,,0.00,meteohub,2013-08-31 20:02:00,
2013-08-31 13:07:00,89.1,52.7,29.96,SSW,208,0.0,5.0,29,0.00,,,0.00,meteohub,2013-08-31 20:07:00,
2013-08-31 13:12:00,89.2,51.8,29.96,SSW,211,0.0,5.0,28,0.00,,,0.00,meteohub,2013-08-31 20:12:00,
2013-08-31 13:17:00,89.4,51.1,29.96,WSW,247,0.0,4.0,27,0.00,,,0.00,meteohub,2013-08-31 20:17:00,
2013-08-31 13:22:00,89.8,52.3,29.96,ESE,114,0.0,4.0,28,0.00,,,0.00,meteohub,2013-08-31 20:22:00,
2013-08-31 13:27:00,90.1,51.6,29.96,SW,226,0.0,4.0,27,0.00,,,0.00,meteohub,2013-08-31 20:27:00,
2013-08-31 13:32:00,90.1,51.6,29.96,East,90,0.0,4.0,27,0.00,,,0.00,meteohub,2013-08-31 20:32:00,
2013-08-31 13:37:00,90.3,52.9,29.96,WSW,249,4.0,4.0,28,0.00,,,0.00,meteohub,2013-08-31 20:37:00,
2013-08-31 13:42:00,90.3,52.9,29.96,WSW,246,0.0,7.0,28,0.00,,,0.00,meteohub,2013-08-31 20:42:00,
2013-08-31 13:47:00,90.9,52.3,29.96,SSW,196,0.0,7.0,27,0.00,,,0.00,meteohub,2013-08-31 20:47:00,
2013-08-31 13:52:00,90.9,51.3,29.95,SSW,213,0.0,7.0,26,0.00,,,0.00,meteohub,2013-08-31 20:52:00,
2013-08-31 13:57:00,91.0,53.4,29.95,South,184,0.0,7.0,28,0.00,,,0.00,meteohub,2013-08-31 20:57:00,
2013-08-31 14:02:00,91.6,51.8,29.95,East,86,3.0,7.0,26,0.00,,,0.00,meteohub,2013-08-31 21:02:00,
2013-08-31 14:07:00,92.5,53.6,29.95,SW,232,6.0,7.0,27,0.00,,,0.00,meteohub,2013-08-31 21:07:00,
2013-08-31 14:12:00,92.5,52.5,29.95,SE,128,2.0,7.0,26,0.00,,,0.00,meteohub,2013-08-31 21:12:00,
2013-08-31 14:18:00,92.1,52.3,29.95,SSW,213,4.0,7.0,26,0.00,,,0.00,meteohub,2013-08-31 21:18:00,
2013-08-31 14:23:00,92.1,51.3,29.95,SE,135,0.0,7.0,25,0.00,,,0.00,meteohub,2013-08-31 21:23:00,
2013-08-31 14:28:00,92.1,52.3,29.95,ESE,111,0.0,7.0,26,0.00,,,0.00,meteohub,2013-08-31 21:28:00,
2013-08-31 14:33:00,91.9,52.2,29.94,SW,214,0.0,7.0,26,0.00,,,0.00,meteohub,2013-08-31 21:33:00,
2013-08-31 14:41:00,92.8,52.9,29.94,SSE,166,0.0,7.0,26,0.00,,,0.00,meteohub,2013-08-31 21:41:00,
2013-08-31 14:46:00,92.8,51.8,29.94,SW,221,5.0,7.0,25,0.00,,,0.00,meteohub,2013-08-31 21:46:00,
2013-08-31 14:52:00,92.8,51.8,29.94,ESE,108,2.0,9.0,25,0.00,,,0.00,meteohub,2013-08-31 21:52:00,
2013-08-31 14:57:00,92.7,51.6,29.94,WSW,243,3.0,9.0,25,0.00,,,0.00,meteohub,2013-08-31 21:57:00,
2013-08-31 15:02:00,92.3,50.4,29.94,ESE,109,7.0,9.0,24,0.00,,,0.00,meteohub,2013-08-31 22:02:00,
2013-08-31 15:07:00,92.1,52.3,29.94,SSW,207,5.0,9.0,26,0.00,,,0.00,meteohub,2013-08-31 22:07:00,
2013-08-31 15:14:00,92.1,51.3,29.94,SW,236,5.0,8.0,25,0.00,,,0.00,meteohub,2013-08-31 22:14:00,
2013-08-31 15:19:00,91.8,50.9,29.94,WSW,241,4.0,8.0,25,0.00,,,0.00,meteohub,2013-08-31 22:19:00,
2013-08-31 15:24:00,91.4,51.6,29.94,SW,226,1.0,8.0,26,0.00,,,0.00,meteohub,2013-08-31 22:24:00,
2013-08-31 15:30:00,91.2,50.5,29.94,SW,227,0.0,7.0,25,0.00,,,0.00,meteohub,2013-08-31 22:30:00,
2013-08-31 15:35:00,90.9,50.2,29.94,SW,228,3.0,7.0,25,0.00,,,0.00,meteohub,2013-08-31 22:35:00,
2013-08-31 15:40:00,90.7,52.2,29.93,SW,219,1.0,8.0,27,0.00,,,0.00,meteohub,2013-08-31 22:40:00,
2013-08-31 15:47:00,91.4,52.7,29.93,SW,227,4.0,8.0,27,0.00,,,0.00,meteohub,2013-08-31 22:47:00,
2013-08-31 15:52:00,91.2,52.5,29.93,SSE,165,0.0,8.0,27,0.00,,,0.00,meteohub,2013-08-31 22:52:00,
2013-08-31 15:57:00,91.6,51.8,29.93,SW,223,0.0,8.0,26,0.00,,,0.00,meteohub,2013-08-31 22:57:00,
2013-08-31 16:02:00,91.2,51.6,29.93,WSW,237,0.0,8.0,26,0.00,,,0.00,meteohub,2013-08-31 23:02:00,
2013-08-31 16:07:00,91.8,50.9,29.93,SSE,162,1.0,8.0,25,0.00,,,0.00,meteohub,2013-08-31 23:07:00,
2013-08-31 16:12:00,91.9,51.1,29.93,South,182,2.0,8.0,25,0.00,,,0.00,meteohub,2013-08-31 23:12:00,
2013-08-31 16:17:00,92.1,50.2,29.93,SW,228,3.0,5.0,24,0.00,,,0.00,meteohub,2013-08-31 23:17:00,
2013-08-31 16:24:00,91.9,50.0,29.93,SW,236,1.0,5.0,24,0.00,,,0.00,meteohub,2013-08-31 23:24:00,
2013-08-31 16:29:00,91.8,49.8,29.92,SW,225,5.0,6.0,24,0.00,,,0.00,meteohub,2013-08-31 23:29:00,
2013-08-31 16:34:00,90.9,50.2,29.92,WSW,249,0.0,6.0,25,0.00,,,0.00,meteohub,2013-08-31 23:34:00,
2013-08-31 16:39:00,91.4,49.5,29.92,WSW,244,2.0,6.0,24,0.00,,,0.00,meteohub,2013-08-31 23:39:00,
2013-08-31 16:44:00,91.2,50.5,29.92,SSW,206,2.0,7.0,25,0.00,,,0.00,meteohub,2013-08-31 23:44:00,
2013-08-31 16:50:00,91.6,49.6,29.92,West,271,3.0,7.0,24,0.00,,,0.00,meteohub,2013-08-31 23:50:00,
2013-08-31 16:55:00,91.0,48.0,29.92,WSW,239,2.0,7.0,23,0.00,,,0.00,meteohub,2013-08-31 23:55:00,
2013-08-31 17:01:00,90.3,48.6,29.92,WSW,240,0.0,7.0,24,0.00,,,0.00,meteohub,2013-09-01 00:01:00,
2013-08-31 17:06:00,90.5,47.7,29.91,WSW,246,0.0,7.0,23,0.00,,,0.00,meteohub,2013-09-01 00:06:00,
2013-08-31 17:11:00,89.6,46.9,29.91,SW,236,1.0,7.0,23,0.00,,,0.00,meteohub,2013-09-01 00:11:00,
2013-08-31 17:16:00,89.1,47.7,29.91,SW,227,2.0,5.0,24,0.00,,,0.00,meteohub,2013-09-01 00:16:00,
2013-08-31 17:21:00,88.9,46.2,29.91,WSW,246,0.0,5.0,23,0.00,,,0.00,meteohub,2013-09-01 00:21:00,
2013-08-31 17:26:00,89.1,46.4,29.91,WSW,246,0.0,5.0,23,0.00,,,0.00,meteohub,2013-09-01 00:26:00,
2013-08-31 17:31:00,90.0,54.3,29.91,NW,309,0.0,5.0,30,0.00,,,0.00,meteohub,2013-09-01 00:31:00,
2013-08-31 17:36:00,90.1,57.2,29.91,NW,309,1.0,5.0,33,0.00,,,0.00,meteohub,2013-09-01 00:36:00,
2013-08-31 17:41:00,90.0,57.7,29.91,NNW,332,1.0,4.0,34,0.00,,,0.00,meteohub,2013-09-01 00:41:00,
2013-08-31 17:46:00,89.8,57.7,29.91,North,350,1.0,4.0,34,0.00,,,0.00,meteohub,2013-09-01 00:46:00,
2013-08-31 17:51:00,89.8,58.5,29.91,North,355,4.0,4.0,35,0.00,,,0.00,meteohub,2013-09-01 00:51:00,
2013-08-31 17:56:00,89.4,58.1,29.91,NNW,339,4.0,7.0,35,0.00,,,0.00,meteohub,2013-09-01 00:56:00,
2013-08-31 18:01:00,88.9,58.5,29.91,NW,323,2.0,7.0,36,0.00,,,0.00,meteohub,2013-09-01 01:01:00,
2013-08-31 18:06:00,88.3,57.9,29.91,NNE,24,3.0,7.0,36,0.00,,,0.00,meteohub,2013-09-01 01:06:00,
2013-08-31 18:11:00,87.4,58.6,29.91,NNW,346,5.0,7.0,38,0.00,,,0.00,meteohub,2013-09-01 01:11:00,
2013-08-31 18:17:00,86.5,58.6,29.91,NNE,15,0.0,7.0,39,0.00,,,0.00,meteohub,2013-09-01 01:17:00,
2013-08-31 18:22:00,85.5,59.0,29.91,NW,326,2.0,7.0,41,0.00,,,0.00,meteohub,2013-09-01 01:22:00,
2013-08-31 18:27:00,84.9,59.2,29.91,North,355,4.0,7.0,42,0.00,,,0.00,meteohub,2013-09-01 01:27:00,
2013-08-31 18:32:00,84.4,58.8,29.91,North,0,3.0,7.0,42,0.00,,,0.00,meteohub,2013-09-01 01:32:00,
2013-08-31 18:37:00,83.8,59.0,29.91,North,355,3.0,7.0,43,0.00,,,0.00,meteohub,2013-09-01 01:37:00,
2013-08-31 18:43:00,83.3,58.5,29.91,North,355,8.0,8.0,43,0.00,,,0.00,meteohub,2013-09-01 01:43:00,
2013-08-31 18:48:00,82.8,58.6,29.91,NW,319,3.0,7.0,44,0.00,,,0.00,meteohub,2013-09-01 01:48:00,
2013-08-31 18:55:00,82.0,58.6,29.91,North,355,3.0,8.0,45,0.00,,,0.00,meteohub,2013-09-01 01:55:00,
2013-08-31 19:00:00,81.3,58.6,29.91,NNW,340,1.0,8.0,46,0.00,,,0.00,meteohub,2013-09-01 02:00:00,
2013-08-31 19:05:00,80.6,58.5,29.91,North,355,2.0,9.0,47,0.00,,,0.00,meteohub,2013-09-01 02:05:00,
2013-08-31 19:10:00,80.1,58.6,29.91,North,355,5.0,9.0,48,0.00,,,0.00,meteohub,2013-09-01 02:10:00,
2013-08-31 19:15:00,79.3,58.5,29.91,NNW,329,5.0,8.0,49,0.00,,,0.00,meteohub,2013-09-01 02:15:00,
2013-08-31 19:20:00,78.8,58.6,29.91,North,0,5.0,9.0,50,0.00,,,0.00,meteohub,2013-09-01 02:20:00,
2013-08-31 19:26:00,78.1,58.5,29.91,NNW,342,4.0,9.0,51,0.00,,,0.00,meteohub,2013-09-01 02:26:00,
2013-08-31 19:31:00,77.4,57.7,29.91,North,355,2.0,8.0,51,0.00,,,0.00,meteohub,2013-09-01 02:31:00,
2013-08-31 19:36:00,76.8,57.9,29.91,NNW,348,4.0,9.0,52,0.00,,,0.00,meteohub,2013-09-01 02:36:00,
2013-08-31 19:42:00,76.5,58.1,29.92,NNW,343,7.0,9.0,53,0.00,,,0.00,meteohub,2013-09-01 02:42:00,
2013-08-31 19:47:00,75.7,57.9,29.92,NNW,344,3.0,9.0,54,0.00,,,0.00,meteohub,2013-09-01 02:47:00,
2013-08-31 19:52:00,75.4,58.1,29.92,NNW,340,4.0,8.0,55,0.00,,,0.00,meteohub,2013-09-01 02:52:00,
2013-08-31 19:57:00,74.8,58.1,29.92,NNW,335,2.0,8.0,56,0.00,,,0.00,meteohub,2013-09-01 02:57:00,
2013-08-31 20:02:00,74.7,58.5,29.92,NNW,339,3.0,8.0,57,0.00,,,0.00,meteohub,2013-09-01 03:02:00,
2013-08-31 20:07:00,74.1,57.9,29.92,NNW,340,2.0,8.0,57,0.00,,,0.00,meteohub,2013-09-01 03:07:00,
2013-08-31 20:12:00,73.9,58.3,29.92,North,355,5.0,7.0,58,0.00,,,0.00,meteohub,2013-09-01 03:12:00,
2013-08-31 20:17:00,73.4,58.3,29.92,North,5,4.0,7.0,59,0.00,,,0.00,meteohub,2013-09-01 03:17:00,
2013-08-31 20:22:00,73.0,57.9,29.92,North,0,3.0,7.0,59,0.00,,,0.00,meteohub,2013-09-01 03:22:00,
2013-08-31 20:27:00,72.7,57.9,29.92,North,355,5.0,7.0,60,0.00,,,0.00,meteohub,2013-09-01 03:27:00,
2013-08-31 20:33:00,72.1,57.9,29.93,NNW,330,4.0,9.0,61,0.00,,,0.00,meteohub,2013-09-01 03:33:00,
2013-08-31 20:38:00,72.0,58.3,29.93,North,0,4.0,9.0,62,0.00,,,0.00,meteohub,2013-09-01 03:38:00,
2013-08-31 20:43:00,71.4,58.1,29.93,North,351,4.0,9.0,63,0.00,,,0.00,meteohub,2013-09-01 03:43:00,
2013-08-31 20:48:00,71.1,58.3,29.93,NNW,344,7.0,9.0,64,0.00,,,0.00,meteohub,2013-09-01 03:48:00,
2013-08-31 20:53:00,70.7,58.3,29.93,NNW,329,3.0,8.0,65,0.00,,,0.00,meteohub,2013-09-01 03:53:00,
2013-08-31 20:58:00,70.3,58.5,29.93,North,349,5.0,10.0,66,0.00,,,0.00,meteohub,2013-09-01 03:58:00,
2013-08-31 21:02:00,70.2,58.3,29.93,North,5,5.0,10.0,66,0.00,,,0.00,meteohub,2013-09-01 04:02:00,
2013-08-31 21:03:00,70.2,58.3,29.93,NNE,12,1.0,10.0,66,0.00,,,0.00,meteohub,2013-09-01 04:03:00,
2013-08-31 21:08:00,69.8,58.3,29.93,North,0,4.0,10.0,67,0.00,,,0.00,meteohub,2013-09-01 04:08:00,
2013-08-31 21:14:00,69.4,57.9,29.94,North,349,5.0,10.0,67,0.00,,,0.00,meteohub,2013-09-01 04:14:00,
2013-08-31 21:19:00,69.3,58.3,29.94,NNW,344,7.0,9.0,68,0.00,,,0.00,meteohub,2013-09-01 04:19:00,
2013-08-31 21:24:00,69.1,58.5,29.94,NNW,344,4.0,9.0,69,0.00,,,0.00,meteohub,2013-09-01 04:24:00,
2013-08-31 21:29:00,68.7,58.1,29.94,North,355,3.0,9.0,69,0.00,,,0.00,meteohub,2013-09-01 04:29:00,
2013-08-31 21:34:00,68.4,58.3,29.93,North,0,3.0,9.0,70,0.00,,,0.00,meteohub,2013-09-01 04:34:00,
2013-08-31 21:39:00,68.4,58.6,29.94,North,355,4.0,9.0,71,0.00,,,0.00,meteohub,2013-09-01 04:39:00,
2013-08-31 21:44:00,68.2,58.5,29.94,North,350,1.0,12.0,71,0.00,,,0.00,meteohub,2013-09-01 04:44:00,
2013-08-31 21:49:00,67.8,58.5,29.94,North,349,3.0,12.0,72,0.00,,,0.00,meteohub,2013-09-01 04:49:00,
2013-08-31 21:54:00,67.8,58.5,29.94,North,355,8.0,10.0,72,0.00,,,0.00,meteohub,2013-09-01 04:54:00,
2013-08-31 21:59:00,67.6,58.6,29.94,NNW,344,3.0,10.0,73,0.00,,,0.00,meteohub,2013-09-01 04:59:00,
2013-08-31 22:05:00,67.5,58.5,29.94,NNW,344,3.0,10.0,73,0.00,,,0.00,meteohub,2013-09-01 05:05:00,
2013-08-31 22:10:00,67.3,58.6,29.94,NNW,342,4.0,10.0,74,0.00,,,0.00,meteohub,2013-09-01 05:10:00,
2013-08-31 22:15:00,67.3,58.6,29.94,NNW,346,4.0,8.0,74,0.00,,,0.00,meteohub,2013-09-01 05:15:00,
2013-08-31 22:20:00,67.1,58.5,29.94,North,5,2.0,8.0,74,0.00,,,0.00,meteohub,2013-09-01 05:20:00,
2013-08-31 22:27:00,66.9,58.3,29.94,North,355,6.0,8.0,74,0.00,,,0.00,meteohub,2013-09-01 05:27:00,
2013-08-31 22:32:00,66.9,58.3,29.94,NNW,344,2.0,8.0,74,0.00,,,0.00,meteohub,2013-09-01 05:32:00,
2013-08-31 22:37:00,66.9,58.3,29.94,NNW,342,3.0,8.0,74,0.00,,,0.00,meteohub,2013-09-01 05:37:00,
2013-08-31 22:42:00,66.9,58.3,29.94,NNW,331,6.0,8.0,74,0.00,,,0.00,meteohub,2013-09-01 05:42:00,
2013-08-31 22:49:00,66.7,58.1,29.94,North,0,4.0,8.0,74,0.00,,,0.00,meteohub,2013-09-01 05:49:00,
2013-08-31 22:55:00,66.7,58.6,29.94,NNE,12,3.0,8.0,75,0.00,,,0.00,meteohub,2013-09-01 05:55:00,
2013-08-31 23:00:00,66.6,58.5,29.94,NNE,12,5.0,9.0,75,0.00,,,0.00,meteohub,2013-09-01 06:00:00,
2013-08-31 23:07:00,66.4,58.3,29.94,North,355,5.0,9.0,75,0.00,,,0.00,meteohub,2013-09-01 06:07:00,
2013-08-31 23:12:00,66.4,58.6,29.94,North,355,5.0,10.0,76,0.00,,,0.00,meteohub,2013-09-01 06:12:00,
2013-08-31 23:17:00,66.2,58.5,29.94,North,355,3.0,9.0,76,0.00,,,0.00,meteohub,2013-09-01 06:17:00,
2013-08-31 23:22:00,66.2,58.5,29.94,North,5,4.0,8.0,76,0.00,,,0.00,meteohub,2013-09-01 06:22:00,
2013-08-31 23:27:00,66.0,58.3,29.94,North,9,3.0,8.0,76,0.00,,,0.00,meteohub,2013-09-01 06:27:00,
2013-08-31 23:32:00,66.0,58.3,29.94,NNW,347,1.0,7.0,76,0.00,,,0.00,meteohub,2013-09-01 06:32:00,
2013-08-31 23:37:00,66.0,57.9,29.95,NNE,21,3.0,7.0,75,0.00,,,0.00,meteohub,2013-09-01 06:37:00,
2013-08-31 23:42:00,66.0,57.9,29.94,North,355,5.0,7.0,75,0.00,,,0.00,meteohub,2013-09-01 06:42:00,
2013-08-31 23:47:00,66.0,57.9,29.94,North,355,1.0,7.0,75,0.00,,,0.00,meteohub,2013-09-01 06:47:00,
2013-08-31 23:52:00,66.0,57.9,29.94,NNW,348,4.0,7.0,75,0.00,,,0.00,meteohub,2013-09-01 06:52:00,
2013-08-31 23:57:00,66.0,58.3,29.94,North,5,3.0,7.0,76,0.00,,,0.00,meteohub,2013-09-01 06:57:00,